createdAt,value
2022-10-19T00:14:32.040Z,100
2022-10-19T00:34:33.006Z,100
2022-10-19T00:44:33.771Z,100
2022-10-19T01:04:34.818Z,100
2022-10-19T01:14:35.767Z,100
2022-10-19T01:34:37.754Z,100
2022-10-19T01:44:37.925Z,100
2022-10-19T01:54:38.497Z,100
2022-10-19T02:04:39.493Z,100
2022-10-19T02:24:40.326Z,100
2022-10-19T02:34:41.060Z,100
2022-10-19T02:44:42.013Z,100
2022-10-19T02:54:42.450Z,100
2022-10-19T03:04:42.723Z,100
2022-10-19T03:14:42.875Z,100
2022-10-19T03:24:43.772Z,100
2022-10-19T03:34:44.722Z,100
2022-10-19T03:44:45.222Z,100
2022-10-19T03:54:45.490Z,100
2022-10-19T04:04:46.123Z,100
2022-10-19T04:14:56.635Z,100
2022-10-19T04:24:47.574Z,100
2022-10-19T04:34:47.874Z,100
2022-10-19T04:44:48.175Z,100
2022-10-19T04:54:48.463Z,100
2022-10-19T05:04:48.727Z,100
2022-10-19T05:14:49.014Z,100
2022-10-19T05:24:52.257Z,100
2022-10-19T05:34:50.490Z,100
2022-10-19T05:44:50.930Z,100
2022-10-19T05:54:51.715Z,100
2022-10-19T06:04:52.693Z,100
2022-10-19T06:14:53.461Z,100
2022-10-19T06:24:53.651Z,100
2022-10-19T06:34:56.501Z,100
2022-10-19T07:04:56.956Z,100
2022-10-19T07:14:57.402Z,100
2022-10-19T07:24:57.584Z,100
2022-10-19T07:34:57.991Z,100
2022-10-19T07:44:59.001Z,100
2022-10-19T07:55:00.007Z,100
2022-10-19T08:05:04.058Z,100
2022-10-19T08:15:01.689Z,100
2022-10-19T08:25:02.271Z,100
2022-10-19T08:35:05.068Z,100
2022-10-19T08:45:03.668Z,100
2022-10-19T08:55:04.025Z,100
2022-10-19T09:15:04.767Z,100
2022-10-19T09:25:05.266Z,100
2022-10-19T09:35:06.369Z,100
2022-10-19T09:45:06.757Z,100
2022-10-19T09:55:07.305Z,100
2022-10-19T10:05:07.734Z,95
2022-10-19T10:15:08.016Z,87
2022-10-19T10:25:08.925Z,83
2022-10-19T10:35:09.348Z,80
2022-10-19T10:45:09.735Z,78
2022-10-19T10:55:10.462Z,77
2022-10-19T11:05:11.500Z,78
2022-10-19T11:15:12.147Z,77
2022-10-19T11:25:12.473Z,79
2022-10-19T11:45:14.490Z,75
2022-10-19T11:55:14.780Z,76
2022-10-19T12:05:15.145Z,74
2022-10-19T12:15:15.820Z,73
2022-10-19T12:25:16.071Z,71
2022-10-19T12:35:16.802Z,72
2022-10-19T12:45:17.799Z,74
2022-10-19T12:55:18.107Z,74
2022-10-19T13:05:19.005Z,71
2022-10-19T13:15:19.159Z,72
2022-10-19T13:25:19.836Z,71
2022-10-19T13:45:21.482Z,73
2022-10-19T13:55:21.984Z,73
2022-10-19T14:05:21.975Z,73
2022-10-19T14:15:22.144Z,73
2022-10-19T14:25:22.385Z,74
2022-10-19T14:35:22.978Z,74
2022-10-19T14:55:24.075Z,77
2022-10-19T15:05:24.874Z,79
2022-10-19T15:15:25.734Z,79
2022-10-19T15:25:26.270Z,80
2022-10-19T15:35:26.939Z,80
2022-10-19T15:45:27.578Z,81
2022-10-19T15:55:27.683Z,81
2022-10-19T16:05:28.547Z,82
2022-10-19T16:15:29.474Z,84
2022-10-19T16:25:30.123Z,85
2022-10-19T16:35:30.549Z,85
2022-10-19T17:05:32.069Z,86
2022-10-19T17:15:42.770Z,86
2022-10-19T17:25:33.118Z,86
2022-10-19T17:35:34.083Z,87
2022-10-19T17:45:35.111Z,87
2022-10-19T17:55:35.628Z,87
2022-10-19T18:05:36.447Z,88
2022-10-19T18:35:37.462Z,89
2022-10-19T18:45:38.255Z,89
2022-10-19T18:55:38.538Z,90
2022-10-19T19:05:39.525Z,90
2022-10-19T19:45:41.075Z,92
2022-10-19T20:05:41.876Z,93
2022-10-19T20:15:42.159Z,94
2022-10-19T20:35:43.408Z,95
2022-10-19T20:45:43.734Z,96
2022-10-19T20:55:44.511Z,95
2022-10-19T21:05:44.939Z,96
2022-10-19T21:15:45.705Z,96
2022-10-19T21:25:46.115Z,97
2022-10-19T21:35:46.698Z,97
2022-10-19T21:45:47.068Z,98
2022-10-19T21:55:47.923Z,98
2022-10-19T22:05:48.977Z,98
2022-10-19T22:15:49.201Z,99
2022-10-19T22:25:49.424Z,99
2022-10-19T22:55:50.988Z,100
2022-10-19T23:05:51.261Z,100
2022-10-19T23:25:52.287Z,100
2022-10-19T23:35:53.315Z,100
2022-10-19T23:45:54.150Z,100
2022-10-19T23:55:54.418Z,100
